createdAt,value
2023-02-23T00:02:05.983Z,14.50
2023-02-23T00:04:34.260Z,14.60
2023-02-23T00:07:00.858Z,13.70
2023-02-23T00:09:34.475Z,13.70
2023-02-23T00:12:06.947Z,15.30
2023-02-23T00:17:00.680Z,15.10
2023-02-23T00:19:27.255Z,15.50
2023-02-23T00:21:53.909Z,14.90
2023-02-23T00:24:21.211Z,14.20
2023-02-23T00:26:50.561Z,13.90
2023-02-23T00:29:20.639Z,14.50
2023-02-23T00:31:48.736Z,15.20
2023-02-23T00:34:20.403Z,14.50
2023-02-23T00:36:51.318Z,14.60
2023-02-23T00:39:28.514Z,15.10
2023-02-23T00:41:55.876Z,15.20
2023-02-23T00:44:23.964Z,14.90
2023-02-23T00:46:51.041Z,14.30
2023-02-23T00:49:19.779Z,14.80
2023-02-23T00:51:47.008Z,14.70
2023-02-23T00:54:15.537Z,14.90
2023-02-23T00:56:42.451Z,13.90
2023-02-23T00:59:09.773Z,15.30
2023-02-23T01:01:41.024Z,14.70
2023-02-23T01:04:08.218Z,14.70
2023-02-23T01:06:37.051Z,15.20
2023-02-23T01:09:16.428Z,14.70
2023-02-23T01:11:46.091Z,14.90
2023-02-23T01:14:12.737Z,14.40
2023-02-23T01:16:39.280Z,15.30
2023-02-23T01:19:06.910Z,15.00
2023-02-23T01:21:37.398Z,14.80
2023-02-23T01:24:05.137Z,14.40
2023-02-23T01:26:35.739Z,14.00
2023-02-23T01:29:08.075Z,14.60
2023-02-23T01:31:36.008Z,13.90
2023-02-23T01:34:03.940Z,15.60
2023-02-23T01:36:38.272Z,14.60
2023-02-23T01:39:08.211Z,15.30
2023-02-23T01:41:36.465Z,15.90
2023-02-23T01:44:30.475Z,15.10
2023-02-23T01:46:57.712Z,14.60
2023-02-23T01:49:27.864Z,14.50
2023-02-23T01:51:59.776Z,14.90
2023-02-23T01:54:30.625Z,16.10
2023-02-23T01:57:00.740Z,15.80
2023-02-23T01:59:54.173Z,16.00
2023-02-23T02:02:23.702Z,13.40
2023-02-23T02:04:51.462Z,15.90
2023-02-23T02:07:25.515Z,17.00
2023-02-23T02:10:10.585Z,16.00
2023-02-23T02:12:45.643Z,16.20
2023-02-23T02:15:19.022Z,16.10
2023-02-23T02:18:08.453Z,17.40
2023-02-23T02:21:10.964Z,16.50
2023-02-23T02:24:08.364Z,16.00
2023-02-23T02:26:56.833Z,16.00
2023-02-23T02:29:38.542Z,15.80
2023-02-23T02:32:26.707Z,15.90
2023-02-23T02:35:03.962Z,15.50
2023-02-23T02:37:44.931Z,17.50
2023-02-23T02:40:30.582Z,16.10
2023-02-23T02:43:36.536Z,15.30
2023-02-23T02:46:17.462Z,16.00
2023-02-23T02:48:57.019Z,17.20
2023-02-23T02:52:05.000Z,16.40
2023-02-23T02:54:43.406Z,15.80
2023-02-23T02:57:10.815Z,17.60
2023-02-23T03:00:06.179Z,16.90
2023-02-23T03:02:55.232Z,17.00
2023-02-23T03:05:52.248Z,17.90
2023-02-23T03:09:10.352Z,16.70
2023-02-23T03:12:01.878Z,16.90
2023-02-23T03:15:09.020Z,16.70
2023-02-23T03:18:17.792Z,16.50
2023-02-23T03:21:10.369Z,17.00
2023-02-23T03:24:12.734Z,16.70
2023-02-23T03:27:05.105Z,16.80
2023-02-23T03:30:18.808Z,17.10
2023-02-23T03:36:14.037Z,17.30
2023-02-23T03:39:22.872Z,18.20
2023-02-23T03:42:08.763Z,17.70
2023-02-23T03:44:58.632Z,18.10
2023-02-23T03:47:48.532Z,16.50
2023-02-23T03:50:45.697Z,16.90
2023-02-23T03:53:32.668Z,16.60
2023-02-23T03:56:18.302Z,17.70
2023-02-23T03:59:10.217Z,17.20
2023-02-23T04:01:56.628Z,16.40
2023-02-23T04:04:42.916Z,15.90
2023-02-23T04:07:28.947Z,17.30
2023-02-23T04:10:13.927Z,16.90
2023-02-23T04:13:20.054Z,16.80
2023-02-23T04:15:53.685Z,17.90
2023-02-23T04:18:34.828Z,17.20
2023-02-23T04:21:02.759Z,18.90
2023-02-23T04:23:30.222Z,17.90
2023-02-23T04:25:57.043Z,17.90
2023-02-23T04:28:26.326Z,20.90
2023-02-23T04:30:53.111Z,21.60
2023-02-23T04:33:21.473Z,18.30
2023-02-23T04:35:48.603Z,18.30
2023-02-23T04:38:15.374Z,28.30
2023-02-23T04:40:41.945Z,32.90
2023-02-23T04:43:12.517Z,28.70
2023-02-23T04:45:39.563Z,20.40
2023-02-23T04:48:06.525Z,26.00
2023-02-23T04:50:33.466Z,22.50
2023-02-23T04:53:00.063Z,26.80
2023-02-23T04:55:26.656Z,27.80
2023-02-23T04:57:59.680Z,28.00
2023-02-23T05:00:27.167Z,24.90
2023-02-23T05:02:53.728Z,20.40
2023-02-23T05:05:20.883Z,18.90
2023-02-23T05:07:47.549Z,18.70
2023-02-23T05:10:14.134Z,17.30
2023-02-23T05:12:43.688Z,17.80
2023-02-23T05:15:10.813Z,19.00
2023-02-23T05:17:41.258Z,18.20
2023-02-23T05:20:12.734Z,18.40
2023-02-23T05:22:42.429Z,18.20
2023-02-23T05:25:09.656Z,16.60
2023-02-23T05:27:40.290Z,18.50
2023-02-23T05:30:09.219Z,19.50
2023-02-23T05:32:36.393Z,18.60
2023-02-23T05:35:03.400Z,21.30
2023-02-23T05:37:30.170Z,18.80
2023-02-23T05:39:56.674Z,21.10
2023-02-23T05:42:23.282Z,19.50
2023-02-23T05:44:49.853Z,19.40
2023-02-23T05:47:16.457Z,19.60
2023-02-23T05:49:43.961Z,20.70
2023-02-23T05:52:10.927Z,22.20
2023-02-23T05:54:37.448Z,19.30
2023-02-23T05:57:03.948Z,20.60
2023-02-23T05:59:31.179Z,19.90
2023-02-23T06:01:57.727Z,18.30
2023-02-23T06:04:24.396Z,18.20
2023-02-23T06:06:51.254Z,17.80
2023-02-23T06:09:17.765Z,16.90
2023-02-23T06:11:44.416Z,17.40
2023-02-23T06:14:11.215Z,17.30
2023-02-23T06:16:38.736Z,16.40
2023-02-23T06:19:05.541Z,18.00
2023-02-23T06:21:32.775Z,16.90
2023-02-23T06:24:00.093Z,16.60
2023-02-23T06:26:27.108Z,18.80
2023-02-23T06:28:54.650Z,18.70
2023-02-23T06:31:21.567Z,19.20
2023-02-23T06:33:48.450Z,19.10
2023-02-23T06:36:15.130Z,18.20
2023-02-23T06:38:41.745Z,19.10
2023-02-23T06:41:10.334Z,21.10
2023-02-23T06:43:37.107Z,19.80
2023-02-23T06:46:04.111Z,19.40
2023-02-23T06:48:31.085Z,18.20
2023-02-23T06:50:59.292Z,18.10
2023-02-23T06:53:25.930Z,17.10
2023-02-23T06:55:52.516Z,17.50
2023-02-23T06:58:19.054Z,17.40
2023-02-23T07:00:45.721Z,17.70
2023-02-23T07:03:12.425Z,16.30
2023-02-23T07:05:40.348Z,19.90
2023-02-23T07:08:07.191Z,19.50
2023-02-23T07:10:34.451Z,18.40
2023-02-23T07:13:01.171Z,18.90
2023-02-23T07:15:28.425Z,19.10
2023-02-23T07:17:56.205Z,18.80
2023-02-23T07:20:22.812Z,19.20
2023-02-23T07:22:49.963Z,17.20
2023-02-23T07:25:16.524Z,17.40
2023-02-23T07:27:44.751Z,17.90
2023-02-23T07:30:12.451Z,18.60
2023-02-23T07:32:39.296Z,20.40
2023-02-23T07:35:06.727Z,17.20
2023-02-23T07:37:33.311Z,17.30
2023-02-23T07:40:01.277Z,21.90
2023-02-23T07:42:28.218Z,18.20
2023-02-23T07:44:55.493Z,22.40
2023-02-23T07:47:29.551Z,22.40
2023-02-23T07:50:01.786Z,25.50
2023-02-23T07:52:28.838Z,23.40
2023-02-23T07:54:55.834Z,18.00
2023-02-23T07:57:24.919Z,17.10
2023-02-23T07:59:51.808Z,16.60
2023-02-23T08:02:18.392Z,17.00
2023-02-23T08:04:44.996Z,17.60
2023-02-23T08:07:11.637Z,15.90
2023-02-23T08:09:38.187Z,16.10
2023-02-23T08:12:05.147Z,17.30
2023-02-23T08:14:31.834Z,17.90
2023-02-23T08:17:00.989Z,16.90
2023-02-23T08:19:28.057Z,16.40
2023-02-23T08:21:55.741Z,16.60
2023-02-23T08:24:22.551Z,17.70
2023-02-23T08:26:49.761Z,17.30
2023-02-23T08:29:16.417Z,16.10
2023-02-23T08:31:43.038Z,16.50
2023-02-23T08:34:09.798Z,16.50
2023-02-23T08:36:36.313Z,16.60
2023-02-23T08:39:05.758Z,17.10
2023-02-23T08:41:33.848Z,17.10
2023-02-23T08:44:00.406Z,17.50
2023-02-23T08:46:26.922Z,18.30
2023-02-23T08:48:55.206Z,17.90
2023-02-23T08:51:22.249Z,16.10
2023-02-23T08:53:49.072Z,18.60
2023-02-23T08:56:15.916Z,16.10
2023-02-23T08:58:42.878Z,17.30
2023-02-23T09:01:17.923Z,16.50
2023-02-23T09:03:45.040Z,17.70
2023-02-23T09:06:17.398Z,18.50
2023-02-23T09:08:44.612Z,18.50
2023-02-23T09:11:11.446Z,21.50
2023-02-23T09:13:38.049Z,21.20
2023-02-23T09:16:07.082Z,18.80
2023-02-23T09:18:34.168Z,17.90
2023-02-23T09:21:07.860Z,18.70
2023-02-23T09:23:35.371Z,18.00
2023-02-23T09:26:07.246Z,17.90
2023-02-23T09:28:35.049Z,17.70
2023-02-23T09:31:10.718Z,18.30
2023-02-23T09:33:37.727Z,17.30
2023-02-23T09:36:12.170Z,18.20
2023-02-23T09:38:39.540Z,18.70
2023-02-23T09:41:51.054Z,18.10
2023-02-23T09:44:36.543Z,20.40
2023-02-23T09:47:40.547Z,18.60
2023-02-23T09:50:28.668Z,19.50
2023-02-23T09:53:02.178Z,18.90
2023-02-23T09:55:30.105Z,19.00
2023-02-23T09:58:04.293Z,19.60
2023-02-23T10:00:36.234Z,18.70
2023-02-23T10:03:11.724Z,20.10
2023-02-23T10:05:57.590Z,19.30
2023-02-23T10:09:35.523Z,19.40
2023-02-23T10:12:10.059Z,18.70
2023-02-23T10:14:54.532Z,17.90
2023-02-23T10:17:48.764Z,18.50
2023-02-23T10:20:25.856Z,18.10
2023-02-23T10:22:53.506Z,18.80
2023-02-23T10:25:25.066Z,18.70
2023-02-23T10:27:55.199Z,19.00
2023-02-23T10:30:30.595Z,18.80
2023-02-23T10:33:24.530Z,19.40
2023-02-23T10:36:07.448Z,18.20
2023-02-23T10:38:39.410Z,17.90
2023-02-23T10:41:06.576Z,18.50
2023-02-23T10:43:33.114Z,19.40
2023-02-23T10:45:59.713Z,19.10
2023-02-23T10:48:32.075Z,18.80
2023-02-23T10:51:02.035Z,18.10
2023-02-23T10:53:35.246Z,18.00
2023-02-23T10:56:01.897Z,18.20
2023-02-23T10:58:29.010Z,18.80
2023-02-23T11:01:05.778Z,19.20
2023-02-23T11:03:37.645Z,18.30
2023-02-23T11:06:04.614Z,19.80
2023-02-23T11:08:37.210Z,18.70
2023-02-23T11:11:16.015Z,18.50
2023-02-23T11:13:46.304Z,18.90
2023-02-23T11:16:17.997Z,18.00
2023-02-23T11:19:02.038Z,19.00
2023-02-23T11:21:37.937Z,19.40
2023-02-23T11:24:16.049Z,21.40
2023-02-23T11:26:43.768Z,22.60
2023-02-23T11:29:19.274Z,21.40
2023-02-23T11:31:56.330Z,20.80
2023-02-23T11:34:32.840Z,21.60
2023-02-23T11:37:22.801Z,21.90
2023-02-23T11:39:57.502Z,20.70
2023-02-23T11:42:33.082Z,22.60
2023-02-23T11:45:21.212Z,18.90
2023-02-23T11:47:54.146Z,19.50
2023-02-23T11:50:31.994Z,19.70
2023-02-23T11:53:13.235Z,20.50
2023-02-23T11:55:40.353Z,20.40
2023-02-23T11:58:23.628Z,20.80
2023-02-23T12:01:03.741Z,19.80
2023-02-23T12:03:33.211Z,21.10
2023-02-23T12:06:01.704Z,20.10
2023-02-23T12:08:46.165Z,20.50
2023-02-23T12:11:20.115Z,19.90
2023-02-23T12:13:53.718Z,19.70
2023-02-23T12:16:31.256Z,19.70
2023-02-23T12:19:07.651Z,21.00
2023-02-23T12:21:44.271Z,21.00
2023-02-23T12:24:19.984Z,19.80
2023-02-23T12:27:12.293Z,20.60
2023-02-23T12:30:08.822Z,18.70
2023-02-23T12:32:50.673Z,19.10
2023-02-23T12:35:27.204Z,19.00
2023-02-23T12:38:13.266Z,19.10
2023-02-23T12:40:41.558Z,20.00
2023-02-23T12:43:40.216Z,18.80
2023-02-23T12:46:21.518Z,20.00
2023-02-23T12:48:48.521Z,19.90
2023-02-23T12:51:27.304Z,20.00
2023-02-23T12:53:53.987Z,19.20
2023-02-23T12:56:26.457Z,19.30
2023-02-23T12:59:12.886Z,18.90
2023-02-23T13:02:33.405Z,18.20
2023-02-23T13:05:18.446Z,19.90
2023-02-23T13:08:13.185Z,20.00
2023-02-23T13:11:06.706Z,20.00
2023-02-23T13:14:01.930Z,19.40
2023-02-23T13:16:43.860Z,20.60
2023-02-23T13:19:18.957Z,17.50
2023-02-23T13:21:49.959Z,19.20
2023-02-23T13:24:47.497Z,22.20
2023-02-23T13:27:27.719Z,18.70
2023-02-23T13:29:58.654Z,19.90
2023-02-23T13:32:32.752Z,20.10
2023-02-23T13:35:02.447Z,22.00
2023-02-23T13:37:53.854Z,21.20
2023-02-23T13:41:03.888Z,18.90
2023-02-23T13:44:01.305Z,20.80
2023-02-23T13:46:39.534Z,19.20
2023-02-23T13:49:35.643Z,21.30
2023-02-23T13:52:29.419Z,23.60
2023-02-23T13:55:02.803Z,21.20
2023-02-23T13:57:31.765Z,21.80
2023-02-23T13:59:58.902Z,21.80
2023-02-23T14:02:36.640Z,20.80
2023-02-23T14:05:26.039Z,20.30
2023-02-23T14:08:06.606Z,18.80
2023-02-23T14:10:41.574Z,19.40
2023-02-23T14:13:15.067Z,20.90
2023-02-23T14:15:45.336Z,21.00
2023-02-23T14:18:20.948Z,21.60
2023-02-23T14:20:54.015Z,22.80
2023-02-23T14:23:20.558Z,21.60
2023-02-23T14:26:11.042Z,20.50
2023-02-23T14:28:41.098Z,19.20
2023-02-23T14:31:10.789Z,20.20
2023-02-23T14:33:45.134Z,20.00
2023-02-23T14:36:23.652Z,19.30
2023-02-23T14:39:22.373Z,20.30
2023-02-23T14:41:58.403Z,20.20
2023-02-23T14:44:35.312Z,21.70
2023-02-23T14:47:13.000Z,21.40
2023-02-23T14:49:54.456Z,20.30
2023-02-23T14:52:32.246Z,20.20
2023-02-23T14:55:11.060Z,21.80
2023-02-23T14:57:40.732Z,20.30
2023-02-23T15:00:14.908Z,20.70
2023-02-23T15:02:57.506Z,21.20
2023-02-23T15:05:33.792Z,22.90
2023-02-23T15:08:04.492Z,22.90
2023-02-23T15:10:40.425Z,21.70
2023-02-23T15:13:28.754Z,21.60
2023-02-23T15:16:05.457Z,21.40
2023-02-23T15:18:40.923Z,21.80
2023-02-23T15:21:13.101Z,21.30
2023-02-23T15:23:40.291Z,22.30
2023-02-23T15:26:26.358Z,21.40
2023-02-23T15:28:53.308Z,20.80
2023-02-23T15:31:20.289Z,20.50
2023-02-23T15:33:50.097Z,21.20
2023-02-23T15:36:28.592Z,23.00
2023-02-23T15:38:58.224Z,22.10
2023-02-23T15:41:36.746Z,21.90
2023-02-23T15:44:32.161Z,22.20
2023-02-23T15:47:12.814Z,22.10
2023-02-23T15:49:42.679Z,27.80
2023-02-23T15:52:15.871Z,27.10
2023-02-23T15:54:59.412Z,26.80
2023-02-23T15:57:40.903Z,26.80
2023-02-23T16:00:31.969Z,27.00
2023-02-23T16:03:01.939Z,26.40
2023-02-23T16:05:41.781Z,24.70
2023-02-23T16:08:23.645Z,23.90
2023-02-23T16:10:56.917Z,26.20
2023-02-23T16:13:23.650Z,28.50
2023-02-23T16:15:53.354Z,29.70
2023-02-23T16:18:31.390Z,28.50
2023-02-23T16:20:59.157Z,29.10
2023-02-23T16:23:47.083Z,32.10
2023-02-23T16:26:23.647Z,41.10
2023-02-23T16:28:56.235Z,38.70
2023-02-23T16:31:43.011Z,41.30
2023-02-23T16:34:43.730Z,50.40
2023-02-23T16:37:27.779Z,67.30
2023-02-23T16:39:55.426Z,66.60
2023-02-23T16:42:27.494Z,56.50
2023-02-23T16:44:54.719Z,116.70
2023-02-23T16:47:37.411Z,114.20
2023-02-23T16:50:23.625Z,94.30
2023-02-23T16:52:52.557Z,80.10
2023-02-23T16:55:25.130Z,80.10
2023-02-23T16:58:03.392Z,85.00
2023-02-23T17:00:32.833Z,92.90
2023-02-23T17:03:00.117Z,90.10
2023-02-23T17:05:28.591Z,86.50
2023-02-23T17:07:57.529Z,86.40
2023-02-23T17:10:31.414Z,80.10
2023-02-23T17:13:06.283Z,72.20
2023-02-23T17:15:40.565Z,75.60
2023-02-23T17:18:07.492Z,75.30
2023-02-23T17:20:34.345Z,71.60
2023-02-23T17:23:01.759Z,66.60
2023-02-23T17:25:28.908Z,67.40
2023-02-23T17:27:56.929Z,76.70
2023-02-23T17:30:24.082Z,77.30
2023-02-23T17:32:53.771Z,86.80
2023-02-23T17:35:21.258Z,97.00
2023-02-23T17:37:48.166Z,80.70
2023-02-23T17:40:27.770Z,69.90
2023-02-23T17:42:56.934Z,96.40
2023-02-23T17:45:24.721Z,107.70
2023-02-23T17:47:51.887Z,111.80
2023-02-23T17:50:19.741Z,116.30
2023-02-23T17:52:49.248Z,110.80
2023-02-23T17:55:16.799Z,114.30
2023-02-23T17:57:43.784Z,111.30
2023-02-23T18:00:12.928Z,108.00
2023-02-23T18:02:42.392Z,110.20
2023-02-23T18:05:10.835Z,115.80
2023-02-23T18:07:38.237Z,116.90
2023-02-23T18:10:06.316Z,110.70
2023-02-23T18:12:33.489Z,95.20
2023-02-23T18:15:00.361Z,82.80
2023-02-23T18:17:27.234Z,79.10
2023-02-23T18:19:54.023Z,79.90
2023-02-23T18:22:21.021Z,80.20
2023-02-23T18:24:47.836Z,83.60
2023-02-23T18:27:15.038Z,78.70
2023-02-23T18:29:41.964Z,75.90
2023-02-23T18:32:11.103Z,72.60
2023-02-23T18:34:38.295Z,59.30
2023-02-23T18:37:08.090Z,60.40
2023-02-23T18:39:35.102Z,63.10
2023-02-23T18:42:03.937Z,71.50
2023-02-23T18:44:32.961Z,73.30
2023-02-23T18:47:01.969Z,76.20
2023-02-23T18:49:28.611Z,76.30
2023-02-23T18:51:55.412Z,73.90
2023-02-23T18:54:26.114Z,72.80
2023-02-23T18:56:55.372Z,74.40
2023-02-23T18:59:22.295Z,73.90
2023-02-23T19:01:49.273Z,67.40
2023-02-23T19:04:23.844Z,57.20
2023-02-23T19:06:50.607Z,55.80
2023-02-23T19:09:20.627Z,57.60
2023-02-23T19:11:50.056Z,56.00
2023-02-23T19:14:22.026Z,57.20
2023-02-23T19:16:50.915Z,55.50
2023-02-23T19:19:18.055Z,52.90
2023-02-23T19:21:46.788Z,52.10
2023-02-23T19:24:16.473Z,44.80
2023-02-23T19:26:43.832Z,45.30
2023-02-23T19:29:10.969Z,41.30
2023-02-23T19:31:38.136Z,41.70
2023-02-23T19:34:08.199Z,39.70
2023-02-23T19:36:39.478Z,39.60
2023-02-23T19:39:09.987Z,41.80
2023-02-23T19:41:39.310Z,42.10
2023-02-23T19:44:06.683Z,42.00
2023-02-23T19:46:36.805Z,42.90
2023-02-23T19:49:04.084Z,43.20
2023-02-23T19:51:31.450Z,44.50
2023-02-23T19:53:58.622Z,44.20
2023-02-23T19:56:29.674Z,45.20
2023-02-23T19:58:57.519Z,46.70
2023-02-23T20:01:27.093Z,44.30
2023-02-23T20:04:04.441Z,45.90
2023-02-23T20:06:38.066Z,48.00
2023-02-23T20:09:05.535Z,46.20
2023-02-23T20:11:33.061Z,44.10
2023-02-23T20:14:02.521Z,44.80
2023-02-23T20:16:29.675Z,51.80
2023-02-23T20:18:57.615Z,54.90
2023-02-23T20:21:27.593Z,54.40
2023-02-23T20:23:55.769Z,48.10
2023-02-23T20:26:30.712Z,44.90
2023-02-23T20:28:58.057Z,41.50
2023-02-23T20:31:29.808Z,40.30
2023-02-23T20:34:00.796Z,39.70
2023-02-23T20:36:27.618Z,37.70
2023-02-23T20:38:54.301Z,39.20
2023-02-23T20:41:21.881Z,43.10
2023-02-23T20:43:50.886Z,46.60
2023-02-23T20:46:19.030Z,43.60
2023-02-23T20:48:48.420Z,42.20
2023-02-23T20:51:17.184Z,43.50
2023-02-23T20:53:46.043Z,44.30
2023-02-23T20:56:18.490Z,47.40
2023-02-23T20:58:46.304Z,46.20
2023-02-23T21:01:22.702Z,45.30
2023-02-23T21:03:51.654Z,47.20
2023-02-23T21:06:20.554Z,46.10
2023-02-23T21:08:54.972Z,50.00
2023-02-23T21:11:26.907Z,48.40
2023-02-23T21:13:54.157Z,47.20
2023-02-23T21:16:23.085Z,52.30
2023-02-23T21:19:03.204Z,54.80
2023-02-23T21:21:49.489Z,52.20
2023-02-23T21:24:18.734Z,51.30
2023-02-23T21:26:46.037Z,52.10
2023-02-23T21:29:16.093Z,53.20
2023-02-23T21:31:46.362Z,52.40
2023-02-23T21:34:19.465Z,52.50
2023-02-23T21:36:47.090Z,53.40
2023-02-23T21:39:13.921Z,54.10
2023-02-23T21:41:40.862Z,51.70
2023-02-23T21:44:08.112Z,52.00
2023-02-23T21:46:35.462Z,51.00
2023-02-23T21:49:09.204Z,47.10
2023-02-23T21:51:36.139Z,50.00
2023-02-23T21:54:03.872Z,49.50
2023-02-23T21:56:32.148Z,49.70
2023-02-23T21:58:59.140Z,47.00
2023-02-23T22:01:33.954Z,46.60
2023-02-23T22:04:00.883Z,45.50
2023-02-23T22:06:31.737Z,47.60
2023-02-23T22:08:58.564Z,45.70
2023-02-23T22:11:28.145Z,47.80
2023-02-23T22:14:00.927Z,45.80
2023-02-23T22:16:35.214Z,46.40
2023-02-23T22:19:03.756Z,45.90
2023-02-23T22:21:40.128Z,44.90
2023-02-23T22:24:08.726Z,44.50
2023-02-23T22:26:39.019Z,43.50
2023-02-23T22:29:07.976Z,44.20
2023-02-23T22:31:34.932Z,44.30
2023-02-23T22:34:02.212Z,44.10
2023-02-23T22:36:28.865Z,43.10
2023-02-23T22:38:59.894Z,43.20
2023-02-23T22:41:29.854Z,45.30
2023-02-23T22:43:57.103Z,43.50
2023-02-23T22:46:24.965Z,44.20
2023-02-23T22:48:51.472Z,43.10
2023-02-23T22:51:21.394Z,42.60
2023-02-23T22:53:48.187Z,42.80
2023-02-23T22:56:14.848Z,42.50
2023-02-23T22:58:41.531Z,42.40
2023-02-23T23:01:11.194Z,41.00
2023-02-23T23:03:40.820Z,42.50
2023-02-23T23:06:16.537Z,42.30
2023-02-23T23:08:44.989Z,40.60
2023-02-23T23:11:15.637Z,39.80
2023-02-23T23:13:56.962Z,42.40
2023-02-23T23:16:31.866Z,42.10
2023-02-23T23:19:11.291Z,41.90
2023-02-23T23:21:40.554Z,40.00
2023-02-23T23:24:08.572Z,40.00
2023-02-23T23:26:40.343Z,39.00
2023-02-23T23:29:11.211Z,40.20
2023-02-23T23:31:40.326Z,40.80
2023-02-23T23:34:09.655Z,39.40
2023-02-23T23:36:45.326Z,39.50
2023-02-23T23:39:15.375Z,39.30
2023-02-23T23:41:43.344Z,41.00
2023-02-23T23:44:10.150Z,37.50
2023-02-23T23:46:42.059Z,37.70
2023-02-23T23:49:16.046Z,38.40
2023-02-23T23:51:47.236Z,37.60
2023-02-23T23:54:21.703Z,38.80
2023-02-23T23:56:49.276Z,37.60
2023-02-23T23:59:19.738Z,37.00
